Arcadia, Iowa
Current Conditions -  °F | °C
As of 1:55 PM on Monday 24 Nov 2014 (Local Time) from KCIN Reporting Station
Unknown Precip Unknown Precip  
Wind Chill: 10°   Ceiling: 2000
Heat Index: 25°   Visibility: 10mi
Dew Point: 18°   Wind: 23mph
Humidity: 74%   Direction: 300°WNW
Pressure: 29.7"   Gusts: 31mph
Location:  42.09°N, 95.05°W
Report Text: KCIN 241955Z AUTO 30020G27KT 10SM -UP OVC020 M04/M08 A2970 RMK AO2
Loading
Personal Weather Stations






























Interactive Weather Map New forecast layout! Learn more

10-Day Weather Forecast

Advertisements
Track Severe Weather on mobile